createdAt,value
2023-04-09T00:01:53.033Z,36.45
2023-04-09T00:07:57.215Z,40.28
2023-04-09T00:14:00.763Z,33.60
2023-04-09T00:20:06.095Z,55.30
2023-04-09T00:26:09.584Z,48.42
2023-04-09T00:32:13.051Z,76.53
2023-04-09T00:38:17.887Z,72.80
2023-04-09T00:44:21.253Z,127.45
2023-04-09T00:50:24.674Z,91.88
2023-04-09T00:56:30.382Z,65.82
2023-04-09T01:02:33.932Z,50.28
2023-04-09T01:08:40.919Z,33.85
2023-04-09T01:14:47.614Z,26.92
2023-04-09T01:20:53.907Z,28.30
2023-04-09T01:27:00.274Z,38.08
2023-04-09T01:33:05.821Z,28.60
2023-04-09T01:39:09.608Z,29.35
2023-04-09T01:45:14.184Z,25.48
2023-04-09T01:51:19.505Z,24.80
2023-04-09T01:57:22.885Z,22.98
2023-04-09T02:03:28.247Z,21.30
2023-04-09T02:09:33.637Z,20.58
2023-04-09T02:15:38.757Z,21.17
2023-04-09T02:21:42.343Z,17.13
2023-04-09T02:27:47.498Z,16.95
2023-04-09T02:33:50.926Z,17.90
2023-04-09T02:39:54.460Z,20.65
2023-04-09T02:45:59.270Z,20.25
2023-04-09T02:52:02.707Z,19.45
2023-04-09T02:58:06.099Z,19.42
2023-04-09T03:04:11.020Z,20.92
2023-04-09T03:10:14.554Z,19.67
2023-04-09T03:16:18.010Z,18.40
2023-04-09T03:22:22.893Z,21.67
2023-04-09T03:28:26.761Z,31.38
2023-04-09T03:34:30.214Z,26.42
2023-04-09T03:40:36.527Z,23.98
2023-04-09T03:46:40.187Z,33.05
2023-04-09T03:52:43.749Z,31.25
2023-04-09T03:58:49.855Z,32.78
2023-04-09T04:04:53.393Z,34.42
2023-04-09T04:10:57.023Z,34.85
2023-04-09T04:17:01.857Z,41.78
2023-04-09T04:23:05.379Z,61.20
2023-04-09T04:29:08.997Z,59.67
2023-04-09T04:35:13.987Z,41.85
2023-04-09T04:41:17.397Z,32.47
2023-04-09T04:47:20.969Z,27.95
2023-04-09T04:53:25.982Z,33.55
2023-04-09T04:59:29.436Z,34.35
2023-04-09T05:05:32.880Z,35.85
2023-04-09T05:11:37.851Z,33.08
2023-04-09T05:17:41.275Z,29.42
2023-04-09T05:23:44.684Z,32.63
2023-04-09T05:29:49.399Z,29.20
2023-04-09T05:35:52.823Z,27.63
2023-04-09T05:41:56.557Z,26.52
2023-04-09T05:48:01.772Z,18.05
2023-04-09T05:54:05.528Z,17.88
2023-04-09T06:00:09.744Z,19.10
2023-04-09T06:06:14.551Z,19.10
2023-04-09T06:12:17.978Z,19.48
2023-04-09T06:18:21.387Z,27.35
2023-04-09T06:24:26.157Z,27.98
2023-04-09T06:30:29.667Z,28.38
2023-04-09T06:36:34.720Z,35.35
2023-04-09T06:42:39.460Z,43.40
2023-04-09T06:48:44.611Z,50.20
2023-04-09T06:54:48.003Z,52.00
2023-04-09T07:00:52.766Z,59.13
2023-04-09T07:06:56.962Z,55.70
2023-04-09T07:13:00.610Z,57.60
2023-04-09T07:19:07.525Z,56.15
2023-04-09T07:25:11.172Z,53.67
2023-04-09T07:31:14.632Z,48.88
2023-04-09T07:37:19.682Z,50.33
2023-04-09T07:43:23.174Z,51.00
2023-04-09T07:49:26.734Z,48.00
2023-04-09T07:55:31.641Z,46.72
2023-04-09T08:01:35.147Z,45.10
2023-04-09T08:07:38.598Z,45.95
2023-04-09T08:13:43.358Z,44.80
2023-04-09T08:19:46.769Z,42.60
2023-04-09T08:25:50.212Z,39.58
2023-04-09T08:31:55.093Z,41.45
2023-04-09T08:37:58.705Z,43.05
2023-04-09T08:44:02.267Z,39.88
2023-04-09T08:50:07.592Z,42.90
2023-04-09T08:56:11.005Z,42.78
2023-04-09T09:02:14.447Z,40.95
2023-04-09T09:08:27.178Z,40.17
2023-04-09T09:14:34.906Z,38.95
2023-04-09T09:20:38.697Z,40.25
2023-04-09T09:26:43.807Z,40.83
2023-04-09T09:32:47.454Z,36.20
2023-04-09T09:38:55.220Z,43.10
2023-04-09T09:45:00.866Z,34.33
2023-04-09T09:51:05.267Z,36.55
2023-04-09T09:57:09.735Z,38.05
2023-04-09T10:03:17.133Z,36.03
2023-04-09T10:09:21.334Z,36.58
2023-04-09T10:15:25.197Z,32.85
2023-04-09T10:21:33.510Z,32.78
2023-04-09T10:27:36.993Z,35.33
2023-04-09T10:33:40.658Z,33.33
2023-04-09T10:39:48.198Z,34.72
2023-04-09T10:45:53.562Z,31.55
2023-04-09T10:52:03.693Z,34.28
2023-04-09T10:58:11.283Z,31.35
2023-04-09T11:04:18.978Z,35.80
2023-04-09T11:10:23.005Z,29.58
2023-04-09T11:16:29.087Z,28.33
2023-04-09T11:22:35.157Z,25.33
2023-04-09T11:28:38.883Z,25.17
2023-04-09T11:34:43.662Z,25.58
2023-04-09T11:40:49.394Z,23.55
2023-04-09T11:46:53.619Z,24.08
2023-04-09T11:52:58.481Z,26.50
2023-04-09T11:59:02.618Z,27.98
2023-04-09T12:05:06.935Z,25.30
2023-04-09T12:11:12.601Z,15.75
2023-04-09T12:17:16.110Z,17.77
2023-04-09T12:23:19.802Z,18.30
2023-04-09T12:29:26.220Z,16.23
2023-04-09T12:35:29.655Z,17.15
2023-04-09T12:41:33.092Z,15.77
2023-04-09T12:47:38.045Z,15.95
2023-04-09T12:53:41.800Z,17.20
2023-04-09T12:59:45.317Z,16.02
2023-04-09T13:05:50.574Z,17.63
2023-04-09T13:11:54.027Z,17.42
2023-04-09T13:17:57.704Z,21.55
2023-04-09T13:24:02.556Z,22.85
2023-04-09T13:30:06.356Z,23.13
2023-04-09T13:36:10.100Z,24.60
2023-04-09T13:42:16.144Z,23.33
2023-04-09T13:48:19.796Z,22.70
2023-04-09T13:54:23.565Z,22.00
2023-04-09T14:00:28.452Z,23.92
2023-04-09T14:06:32.344Z,26.25
2023-04-09T14:12:35.936Z,26.00
2023-04-09T14:18:40.726Z,27.30
2023-04-09T14:24:44.135Z,24.50
2023-04-09T14:30:47.857Z,22.58
2023-04-09T14:36:52.600Z,24.95
2023-04-09T14:42:56.078Z,18.83
2023-04-09T14:49:02.469Z,18.45
2023-04-09T14:55:12.248Z,19.20
2023-04-09T15:01:15.750Z,19.83
2023-04-09T15:07:19.354Z,20.05
2023-04-09T15:13:24.143Z,17.85
2023-04-09T15:19:27.826Z,15.20
2023-04-09T15:25:31.332Z,16.30
2023-04-09T15:31:36.319Z,15.07
2023-04-09T15:37:39.982Z,17.35
2023-04-09T15:43:43.398Z,14.95
2023-04-09T15:49:48.259Z,14.10
2023-04-09T15:55:51.706Z,14.20
2023-04-09T16:01:55.434Z,11.65
2023-04-09T16:08:00.248Z,12.20
2023-04-09T16:14:03.996Z,13.45
2023-04-09T16:20:08.451Z,12.77
2023-04-09T16:26:13.740Z,13.85
2023-04-09T16:32:17.161Z,16.38
2023-04-09T16:38:20.765Z,17.48
2023-04-09T16:44:25.631Z,18.40
2023-04-09T16:50:29.393Z,22.63
2023-04-09T16:56:32.964Z,16.20
2023-04-09T17:02:39.568Z,15.35
2023-04-09T17:08:43.261Z,15.15
2023-04-09T17:14:46.636Z,17.05
2023-04-09T17:20:52.380Z,18.15
2023-04-09T17:26:55.777Z,15.75
2023-04-09T17:32:59.236Z,17.50
2023-04-09T17:39:04.525Z,19.83
2023-04-09T17:45:08.723Z,17.05
2023-04-09T17:51:16.380Z,16.92
2023-04-09T17:57:21.154Z,16.52
2023-04-09T18:03:25.907Z,17.95
2023-04-09T18:09:29.858Z,16.95
2023-04-09T18:15:34.749Z,18.35
2023-04-09T18:21:38.230Z,20.60
2023-04-09T18:27:41.872Z,19.40
2023-04-09T18:33:46.672Z,19.42
2023-04-09T18:39:50.122Z,20.73
2023-04-09T18:45:54.168Z,20.15
2023-04-09T18:52:00.450Z,24.10
2023-04-09T18:58:05.325Z,23.90
2023-04-09T19:04:08.824Z,25.73
2023-04-09T19:10:14.914Z,28.90
2023-04-09T19:16:19.017Z,26.40
2023-04-09T19:22:22.820Z,26.42
2023-04-09T19:28:27.737Z,24.42
2023-04-09T19:34:31.133Z,25.90
2023-04-09T19:40:34.952Z,23.88
2023-04-09T19:46:39.921Z,23.70
2023-04-09T19:52:43.637Z,25.85
2023-04-09T19:58:47.103Z,26.10
2023-04-09T20:04:52.405Z,26.80
2023-04-09T20:10:55.939Z,28.52
2023-04-09T20:16:59.628Z,26.63
2023-04-09T20:23:05.068Z,24.10
2023-04-09T20:29:10.164Z,27.13
2023-04-09T20:35:15.078Z,25.35
2023-04-09T20:41:20.051Z,24.17
2023-04-09T20:47:23.467Z,26.83
2023-04-09T20:53:26.978Z,26.13
2023-04-09T20:59:32.542Z,25.55
2023-04-09T21:05:35.976Z,24.63
2023-04-09T21:11:39.428Z,25.00
2023-04-09T21:17:44.207Z,23.10
2023-04-09T21:23:47.717Z,24.30
2023-04-09T21:29:51.115Z,24.70
2023-04-09T21:35:56.199Z,25.92
2023-04-09T21:41:59.678Z,26.73
2023-04-09T21:48:03.331Z,24.83
2023-04-09T21:54:08.992Z,23.15
2023-04-09T22:00:16.159Z,24.40
2023-04-09T22:06:20.213Z,23.95
2023-04-09T22:12:25.388Z,22.38
2023-04-09T22:18:29.103Z,19.83
2023-04-09T22:24:33.848Z,19.13
2023-04-09T22:30:38.666Z,22.75
2023-04-09T22:36:42.615Z,24.05
2023-04-09T22:42:48.048Z,21.33
2023-04-09T22:48:52.966Z,20.35
2023-04-09T22:54:56.573Z,21.45
2023-04-09T23:00:59.930Z,20.85
2023-04-09T23:07:04.815Z,19.70
2023-04-09T23:13:10.191Z,21.10
2023-04-09T23:19:13.767Z,18.42
2023-04-09T23:25:18.622Z,17.75
2023-04-09T23:31:22.247Z,16.80
2023-04-09T23:37:25.945Z,13.90
2023-04-09T23:43:30.736Z,12.25
2023-04-09T23:49:34.557Z,12.82
2023-04-09T23:55:40.798Z,11.98
